createdAt,value
2018-06-01T00:00:09.869Z,99.84
2018-06-01T00:01:09.849Z,99.84
2018-06-01T00:02:09.828Z,99.26
2018-06-01T00:03:09.807Z,99.44
2018-06-01T00:04:09.781Z,99.54
2018-06-01T00:05:09.760Z,99.93
2018-06-01T00:06:09.944Z,99.93
2018-06-01T00:07:09.717Z,99.93
2018-06-01T00:08:09.697Z,99.54
2018-06-01T00:09:09.675Z,99.64
2018-06-01T00:10:09.653Z,99.64
2018-06-01T00:11:09.632Z,99.16
2018-06-01T00:12:09.816Z,99.93
2018-06-01T00:13:09.790Z,99.64
2018-06-01T00:14:09.571Z,99.99
2018-06-01T00:15:09.550Z,99.88
2018-06-01T00:16:09.524Z,99.99
2018-06-01T00:17:09.506Z,99.84
2018-06-01T00:18:09.481Z,99.69
2018-06-01T00:19:09.459Z,99.98
2018-06-01T00:20:09.436Z,99.99
2018-06-01T00:21:09.416Z,99.98
2018-06-01T00:22:09.394Z,99.99
2018-06-01T00:23:09.373Z,99.99
2018-06-01T00:24:09.352Z,99.99
2018-06-01T00:25:09.380Z,99.99
2018-06-01T00:26:09.513Z,99.78
2018-06-01T00:27:09.291Z,99.78
2018-06-01T00:28:09.263Z,99.99
2018-06-01T00:29:09.243Z,99.99
2018-06-01T00:30:09.221Z,99.99
2018-06-01T00:31:09.204Z,99.99
2018-06-01T00:32:09.182Z,99.69
2018-06-01T00:33:09.157Z,99.49
2018-06-01T00:34:09.135Z,99.49
2018-06-01T00:35:09.113Z,99.88
2018-06-01T00:36:09.091Z,99.78
2018-06-01T00:37:09.071Z,99.99
2018-06-01T00:38:09.048Z,99.98
2018-06-01T00:39:09.030Z,99.99
2018-06-01T00:40:09.004Z,99.78
2018-06-01T00:41:08.982Z,99.69
2018-06-01T00:42:08.960Z,99.98
2018-06-01T00:43:08.940Z,99.99
2018-06-01T00:44:08.919Z,99.98
2018-06-01T00:45:08.896Z,99.99
2018-06-01T00:46:08.874Z,99.99
2018-06-01T00:47:08.852Z,99.98
2018-06-01T00:48:08.980Z,99.99
2018-06-01T00:49:08.808Z,99.99
2018-06-01T00:50:08.788Z,99.99
2018-06-01T00:51:08.765Z,99.99
2018-06-01T00:52:08.743Z,99.99
2018-06-01T00:53:08.722Z,99.99
2018-06-01T00:54:08.699Z,99.99
2018-06-01T00:55:08.677Z,99.99
2018-06-01T00:56:08.655Z,99.99
2018-06-01T00:57:08.634Z,99.99
2018-06-01T00:58:08.612Z,99.99
2018-06-01T00:59:08.591Z,99.99
2018-06-01T01:00:08.568Z,99.99
2018-06-01T01:01:08.550Z,99.99
2018-06-01T01:02:08.526Z,99.99
2018-06-01T01:03:08.536Z,99.99
2018-06-01T01:04:08.486Z,99.99
2018-06-01T01:05:08.459Z,99.99
2018-06-01T01:06:08.438Z,99.99
2018-06-01T01:07:08.416Z,99.99
2018-06-01T01:08:08.393Z,99.99
2018-06-01T01:09:08.375Z,99.99
2018-06-01T01:10:08.350Z,99.99
2018-06-01T01:11:08.328Z,99.99
2018-06-01T01:12:08.306Z,99.99
2018-06-01T01:13:08.291Z,99.99
2018-06-01T01:14:08.263Z,99.99
2018-06-01T01:15:08.252Z,99.99
2018-06-01T01:16:08.218Z,99.99
2018-06-01T01:17:08.199Z,99.99
2018-06-01T01:18:08.177Z,99.99
2018-06-01T01:19:08.357Z,99.99
2018-06-01T01:20:08.129Z,99.99
2018-06-01T01:21:08.108Z,99.99
2018-06-01T01:22:08.088Z,99.99
2018-06-01T01:23:08.065Z,99.99
2018-06-01T01:24:08.049Z,99.99
2018-06-01T01:25:08.020Z,99.99
2018-06-01T01:26:07.998Z,99.99
2018-06-01T01:27:07.984Z,99.99
2018-06-01T01:28:07.955Z,99.99
2018-06-01T01:29:07.931Z,99.99
2018-06-01T01:30:07.910Z,99.99
2018-06-01T01:31:07.888Z,99.99
2018-06-01T01:32:07.865Z,99.99
2018-06-01T01:33:07.849Z,99.99
2018-06-01T01:34:07.822Z,99.99
2018-06-01T01:35:07.803Z,99.99
2018-06-01T01:36:07.777Z,99.99
2018-06-01T01:37:07.759Z,99.99
2018-06-01T01:38:07.737Z,99.99
2018-06-01T01:39:07.712Z,99.99
2018-06-01T01:40:07.688Z,99.99
2018-06-01T01:41:07.672Z,99.99
2018-06-01T01:42:07.644Z,99.99
2018-06-01T01:43:07.626Z,99.99
2018-06-01T01:44:07.601Z,99.99
2018-06-01T01:45:07.579Z,99.99
2018-06-01T01:46:07.557Z,99.99
2018-06-01T01:47:07.538Z,99.99
2018-06-01T01:48:07.512Z,99.99
2018-06-01T01:49:07.490Z,99.99
2018-06-01T01:50:07.467Z,99.99
2018-06-01T01:51:07.446Z,99.99
2018-06-01T01:52:07.425Z,99.99
2018-06-01T01:53:07.402Z,99.99
2018-06-01T01:54:07.430Z,99.99
2018-06-01T01:55:07.358Z,99.99
2018-06-01T01:56:07.335Z,99.99
2018-06-01T01:57:07.317Z,99.99
2018-06-01T01:58:07.291Z,99.99
2018-06-01T01:59:07.270Z,99.99
2018-06-01T02:00:07.247Z,99.99
2018-06-01T02:01:07.225Z,99.99
2018-06-01T02:02:07.205Z,99.99
2018-06-01T02:03:07.186Z,99.99
2018-06-01T02:04:07.158Z,99.99
2018-06-01T02:05:07.138Z,99.99
2018-06-01T02:06:07.114Z,99.99
2018-06-01T02:07:07.092Z,99.99
2018-06-01T02:08:07.069Z,99.99
2018-06-01T02:09:07.047Z,99.99
2018-06-01T02:10:07.025Z,99.99
2018-06-01T02:11:07.003Z,99.99
2018-06-01T02:12:06.979Z,99.99
2018-06-01T02:13:06.959Z,99.99
2018-06-01T02:14:06.938Z,99.99
2018-06-01T02:15:06.916Z,99.99
2018-06-01T02:16:06.892Z,99.99
2018-06-01T02:17:06.869Z,99.99
2018-06-01T02:18:06.999Z,99.99
2018-06-01T02:19:06.830Z,99.99
2018-06-01T02:20:06.802Z,99.99
2018-06-01T02:21:06.780Z,99.99
2018-06-01T02:22:06.759Z,99.99
2018-06-01T02:23:06.736Z,99.99
2018-06-01T02:24:06.712Z,99.99
2018-06-01T02:25:06.689Z,99.99
2018-06-01T02:26:06.669Z,99.99
2018-06-01T02:27:06.655Z,99.99
2018-06-01T02:28:06.637Z,99.99
2018-06-01T02:29:06.601Z,99.99
2018-06-01T02:30:06.579Z,99.99
2018-06-01T02:31:06.557Z,99.99
2018-06-01T02:32:06.534Z,99.99
2018-06-01T02:33:06.511Z,99.99
2018-06-01T02:34:06.491Z,99.99
2018-06-01T02:35:06.467Z,99.99
2018-06-01T02:36:06.443Z,99.99
2018-06-01T02:37:06.421Z,99.99
2018-06-01T02:38:06.399Z,99.99
2018-06-01T02:39:06.385Z,99.99
2018-06-01T02:40:06.357Z,99.99
2018-06-01T02:41:06.332Z,99.99
2018-06-01T02:42:06.311Z,99.99
2018-06-01T02:43:06.288Z,99.99
2018-06-01T02:44:06.265Z,99.99
2018-06-01T02:45:06.243Z,99.99
2018-06-01T02:46:06.220Z,99.99
2018-06-01T02:47:06.198Z,99.99
2018-06-01T02:48:06.174Z,99.99
2018-06-01T02:49:06.152Z,99.99
2018-06-01T02:50:06.130Z,99.99
2018-06-01T02:51:06.116Z,99.99
2018-06-01T02:52:06.090Z,99.99
2018-06-01T02:53:06.063Z,99.99
2018-06-01T02:54:06.045Z,99.99
2018-06-01T02:55:06.017Z,99.99
2018-06-01T02:56:05.997Z,99.99
2018-06-01T02:57:05.973Z,99.99
2018-06-01T02:58:05.960Z,99.99
2018-06-01T02:59:05.931Z,99.99
2018-06-01T03:00:05.905Z,99.99
2018-06-01T03:01:05.899Z,99.99
2018-06-01T03:02:05.863Z,99.99
2018-06-01T03:03:05.839Z,99.99
2018-06-01T03:04:05.815Z,99.99
2018-06-01T03:05:05.798Z,99.99
2018-06-01T03:06:05.772Z,99.99
2018-06-01T03:07:05.749Z,99.99
2018-06-01T03:08:05.726Z,99.99
2018-06-01T03:09:05.703Z,99.99
2018-06-01T03:10:05.682Z,99.99
2018-06-01T03:11:05.667Z,99.99
2018-06-01T03:12:05.636Z,99.99
2018-06-01T03:13:05.613Z,99.99
2018-06-01T03:14:05.591Z,99.99
2018-06-01T03:15:05.616Z,99.99
2018-06-01T03:16:05.546Z,99.99
2018-06-01T03:17:05.529Z,99.99
2018-06-01T03:18:05.503Z,99.99
2018-06-01T03:19:05.479Z,99.99
2018-06-01T03:20:05.456Z,99.99
2018-06-01T03:21:05.434Z,99.99
2018-06-01T03:22:05.412Z,99.99
2018-06-01T03:23:05.435Z,99.99
2018-06-01T03:24:05.366Z,99.99
2018-06-01T03:25:05.345Z,99.99
2018-06-01T03:26:05.362Z,99.99
2018-06-01T03:27:05.306Z,99.99
2018-06-01T03:28:05.277Z,99.99
2018-06-01T03:29:05.255Z,99.99
2018-06-01T03:30:05.244Z,99.99
2018-06-01T03:31:05.212Z,99.99
2018-06-01T03:32:05.193Z,99.99
2018-06-01T03:33:05.166Z,99.99
2018-06-01T03:34:05.144Z,99.99
2018-06-01T03:35:05.121Z,99.99
2018-06-01T03:36:05.098Z,99.99
2018-06-01T03:37:05.076Z,99.99
2018-06-01T03:38:05.055Z,99.99
2018-06-01T03:39:05.033Z,99.99
2018-06-01T03:40:05.010Z,99.99
2018-06-01T03:41:04.988Z,99.99
2018-06-01T03:42:04.966Z,99.99
2018-06-01T03:43:04.943Z,99.99
2018-06-01T03:44:04.926Z,99.99
2018-06-01T03:45:04.901Z,99.99
2018-06-01T03:46:04.888Z,99.99
2018-06-01T03:47:04.855Z,99.99
2018-06-01T03:48:04.833Z,99.99
2018-06-01T03:49:04.811Z,99.99
2018-06-01T03:50:04.789Z,99.99
2018-06-01T03:51:04.770Z,99.99
2018-06-01T03:52:04.789Z,99.99
2018-06-01T03:53:04.722Z,99.99
2018-06-01T03:54:04.702Z,99.99
2018-06-01T03:55:04.679Z,99.99
2018-06-01T03:56:04.658Z,99.99
2018-06-01T03:57:04.641Z,99.99
2018-06-01T03:58:04.620Z,99.99
2018-06-01T03:59:04.596Z,99.99
2018-06-01T04:00:04.570Z,99.99
2018-06-01T04:01:04.549Z,99.99
2018-06-01T04:02:04.530Z,99.99
2018-06-01T04:03:04.506Z,99.99
2018-06-01T04:04:04.484Z,99.99
2018-06-01T04:05:04.462Z,99.99
2018-06-01T04:06:04.440Z,99.99
2018-06-01T04:07:04.421Z,99.99
2018-06-01T04:08:04.397Z,99.99
2018-06-01T04:09:04.375Z,99.99
2018-06-01T04:10:04.354Z,99.99
2018-06-01T04:11:04.333Z,99.99
2018-06-01T04:12:04.317Z,99.99
2018-06-01T04:13:04.290Z,99.99
2018-06-01T04:14:04.274Z,99.99
2018-06-01T04:15:04.453Z,99.99
2018-06-01T04:16:04.231Z,99.99
2018-06-01T04:17:04.204Z,99.99
2018-06-01T04:18:04.183Z,99.99
2018-06-01T04:19:04.164Z,99.99
2018-06-01T04:20:04.141Z,99.99
2018-06-01T04:21:04.122Z,99.99
2018-06-01T04:22:04.102Z,99.99
2018-06-01T04:23:04.081Z,99.99
2018-06-01T04:24:04.056Z,99.99
2018-06-01T04:25:04.037Z,99.99
2018-06-01T04:26:04.016Z,99.99
2018-06-01T04:27:03.994Z,99.99
2018-06-01T04:28:03.975Z,99.99
2018-06-01T04:29:03.952Z,99.99
2018-06-01T04:30:03.930Z,99.99
2018-06-01T04:31:03.915Z,99.99
2018-06-01T04:32:03.889Z,99.99
2018-06-01T04:33:03.867Z,99.99
2018-06-01T04:34:03.847Z,99.99
2018-06-01T04:35:03.827Z,99.99
2018-06-01T04:36:03.805Z,99.99
2018-06-01T04:37:03.784Z,99.99
2018-06-01T04:38:03.764Z,99.99
2018-06-01T04:39:03.950Z,99.99
2018-06-01T04:40:03.722Z,99.44
2018-06-01T04:41:03.701Z,99.69
2018-06-01T04:42:03.681Z,99.59
2018-06-01T04:43:03.660Z,99.11
2018-06-01T04:44:03.640Z,99.01
2018-06-01T04:45:03.618Z,98.24
2018-06-01T04:46:03.600Z,98.24
2018-06-01T04:47:03.581Z,98.54
2018-06-01T04:48:03.758Z,97.96
2018-06-01T04:49:03.535Z,97.81
2018-06-01T04:50:03.515Z,98.34
2018-06-01T04:51:03.497Z,98.24
2018-06-01T04:52:03.481Z,97.96
2018-06-01T04:53:03.454Z,97.42
2018-06-01T04:54:03.436Z,96.27
2018-06-01T04:55:04.022Z,96.94
2018-06-01T04:56:03.654Z,96.89
2018-06-01T04:57:03.373Z,95.94
2018-06-01T04:58:03.555Z,95.55
2018-06-01T04:59:03.535Z,95.60
2018-06-01T05:00:03.315Z,96.66
2018-06-01T05:01:03.292Z,96.42
2018-06-01T05:02:03.273Z,96.03
2018-06-01T05:03:03.456Z,95.26
2018-06-01T05:04:03.232Z,96.80
2018-06-01T05:05:03.212Z,97.52
2018-06-01T05:06:03.395Z,97.14
2018-06-01T05:07:03.173Z,96.22
2018-06-01T05:08:03.151Z,94.54
2018-06-01T05:09:03.133Z,93.28
2018-06-01T05:10:03.113Z,92.85
2018-06-01T05:11:03.093Z,91.98
2018-06-01T05:12:03.073Z,91.40
2018-06-01T05:13:03.054Z,91.30
2018-06-01T05:14:03.084Z,92.51
2018-06-01T05:15:03.014Z,93.38
2018-06-01T05:16:02.994Z,93.28
2018-06-01T05:17:02.979Z,94.01
2018-06-01T05:18:03.158Z,94.78
2018-06-01T05:19:02.939Z,95.07
2018-06-01T05:20:02.917Z,95.16
2018-06-01T05:21:02.897Z,94.06
2018-06-01T05:22:02.879Z,94.29
2018-06-01T05:23:02.876Z,93.76
2018-06-01T05:24:03.043Z,93.28
2018-06-01T05:25:02.825Z,93.66
2018-06-01T05:26:02.803Z,92.90
2018-06-01T05:27:02.785Z,92.22
2018-06-01T05:28:02.767Z,92.13
2018-06-01T05:29:02.746Z,93.66
2018-06-01T05:30:02.730Z,92.51
2018-06-01T05:31:02.708Z,93.66
2018-06-01T05:32:02.688Z,93.13
2018-06-01T05:33:02.671Z,92.32
2018-06-01T05:34:02.653Z,92.36
2018-06-01T05:35:02.633Z,91.74
2018-06-01T05:36:02.614Z,91.16
2018-06-01T05:37:02.596Z,90.05
2018-06-01T05:38:02.578Z,89.07
2018-06-01T05:39:02.561Z,87.43
2018-06-01T05:40:02.542Z,86.36
2018-06-01T05:41:02.524Z,85.69
2018-06-01T05:42:02.505Z,86.71
2018-06-01T05:43:02.488Z,89.22
2018-06-01T05:44:02.468Z,87.04
2018-06-01T05:45:02.450Z,85.77
2018-06-01T05:46:02.433Z,84.32
2018-06-01T05:47:02.418Z,83.74
2018-06-01T05:48:02.396Z,83.84
2018-06-01T05:49:02.378Z,85.25
2018-06-01T05:50:02.361Z,84.61
2018-06-01T05:51:02.344Z,85.01
2018-06-01T05:52:02.325Z,86.94
2018-06-01T05:53:02.308Z,85.49
2018-06-01T05:54:02.292Z,85.88
2018-06-01T05:55:02.280Z,85.48
2018-06-01T05:56:02.260Z,83.16
2018-06-01T05:57:02.239Z,82.91
2018-06-01T05:58:02.224Z,81.79
2018-06-01T05:59:02.215Z,80.67
2018-06-01T06:00:02.189Z,81.30
2018-06-01T06:01:02.176Z,81.05
2018-06-01T06:02:02.154Z,79.99
2018-06-01T06:03:02.139Z,79.50
2018-06-01T06:04:02.122Z,79.80
2018-06-01T06:05:02.105Z,78.87
2018-06-01T06:06:02.094Z,78.13
2018-06-01T06:07:02.073Z,77.69
2018-06-01T06:08:02.056Z,76.81
2018-06-01T06:09:02.040Z,78.25
2018-06-01T06:10:02.226Z,79.47
2018-06-01T06:11:02.011Z,81.40
2018-06-01T06:12:01.998Z,79.74
2018-06-01T06:13:01.987Z,78.00
2018-06-01T06:14:01.961Z,77.36
2018-06-01T06:15:01.951Z,77.36
2018-06-01T06:16:01.931Z,77.45
2018-06-01T06:17:01.914Z,77.26
2018-06-01T06:18:01.903Z,77.55
2018-06-01T06:19:01.884Z,75.30
2018-06-01T06:20:02.070Z,74.46
2018-06-01T06:21:01.853Z,73.97
2018-06-01T06:22:01.838Z,74.17
2018-06-01T06:23:01.827Z,74.23
2018-06-01T06:24:01.808Z,73.58
2018-06-01T06:25:01.792Z,73.24
2018-06-01T06:26:01.779Z,72.85
2018-06-01T06:27:01.965Z,73.88
2018-06-01T06:28:01.952Z,73.20
2018-06-01T06:29:01.738Z,77.32
2018-06-01T06:30:01.721Z,79.55
2018-06-01T06:31:01.707Z,77.59
2018-06-01T06:32:01.696Z,76.07
2018-06-01T06:33:01.676Z,75.01
2018-06-01T06:34:01.660Z,74.62
2018-06-01T06:35:01.648Z,75.49
2018-06-01T06:36:01.632Z,73.78
2018-06-01T06:37:01.620Z,72.71
2018-06-01T06:38:01.603Z,72.85
2018-06-01T06:39:01.592Z,73.20
2018-06-01T06:40:01.575Z,73.24
2018-06-01T06:41:01.563Z,73.16
2018-06-01T06:42:01.552Z,75.45
2018-06-01T06:43:01.534Z,75.01
2018-06-01T06:44:01.520Z,75.10
2018-06-01T06:45:01.511Z,73.78
2018-06-01T06:46:01.491Z,73.33
2018-06-01T06:47:01.477Z,72.24
2018-06-01T06:48:01.465Z,71.56
2018-06-01T06:49:01.651Z,70.68
2018-06-01T06:50:01.439Z,69.84
2018-06-01T06:51:01.425Z,69.55
2018-06-01T06:52:01.407Z,70.58
2018-06-01T06:53:01.394Z,69.65
2018-06-01T06:54:01.384Z,69.94
2018-06-01T06:55:01.367Z,69.71
2018-06-01T06:56:01.355Z,69.26
2018-06-01T06:57:01.491Z,68.90
2018-06-01T06:58:01.330Z,68.96
2018-06-01T06:59:01.313Z,69.48
2018-06-01T07:00:01.299Z,69.90
2018-06-01T07:01:01.286Z,70.39
2018-06-01T07:02:01.273Z,70.39
2018-06-01T07:03:01.262Z,68.96
2018-06-01T07:04:01.246Z,69.55
2018-06-01T07:05:01.232Z,70.10
2018-06-01T07:06:01.220Z,70.90
2018-06-01T07:07:01.207Z,72.71
2018-06-01T07:08:01.197Z,73.78
2018-06-01T07:09:01.180Z,73.33
2018-06-01T07:10:01.167Z,72.11
2018-06-01T07:11:01.154Z,70.52
2018-06-01T07:12:01.141Z,71.46
2018-06-01T07:13:01.129Z,70.68
2018-06-01T07:14:01.116Z,70.42
2018-06-01T07:15:01.111Z,68.64
2018-06-01T07:16:01.291Z,67.77
2018-06-01T07:17:01.282Z,67.41
2018-06-01T07:18:01.065Z,66.99
2018-06-01T07:19:01.058Z,68.64
2018-06-01T07:20:01.038Z,68.96
2018-06-01T07:21:01.027Z,67.90
2018-06-01T07:22:01.020Z,66.53
2018-06-01T07:23:01.004Z,67.32
2018-06-01T07:24:00.994Z,66.60
2018-06-01T07:25:00.979Z,66.93
2018-06-01T07:26:00.966Z,68.06
2018-06-01T07:27:01.103Z,68.06
2018-06-01T07:28:00.940Z,67.96
2018-06-01T07:29:00.926Z,67.67
2018-06-01T07:30:00.915Z,67.96
2018-06-01T07:31:00.902Z,68.32
2018-06-01T07:32:00.890Z,68.32
2018-06-01T07:33:01.028Z,68.51
2018-06-01T07:34:00.910Z,69.20
2018-06-01T07:37:49.709Z,66.66
2018-06-01T07:38:49.536Z,65.30
2018-06-01T07:39:49.472Z,65.75
2018-06-01T07:40:49.461Z,67.28
2018-06-01T07:41:49.448Z,67.28
2018-06-01T07:42:49.434Z,68.45
2018-06-01T07:43:49.424Z,67.90
2018-06-01T07:44:49.413Z,66.08
2018-06-01T07:45:49.401Z,65.30
2018-06-01T07:46:49.467Z,65.33
2018-06-01T07:47:49.376Z,66.63
2018-06-01T07:48:49.367Z,68.32
2018-06-01T07:49:49.557Z,67.02
2018-06-01T07:50:49.547Z,66.53
2018-06-01T07:51:49.329Z,66.27
2018-06-01T07:52:49.316Z,67.25
2018-06-01T07:53:49.307Z,65.46
2018-06-01T07:54:49.294Z,65.43
2018-06-01T07:55:49.283Z,63.77
2018-06-01T07:56:49.329Z,64.00
2018-06-01T07:57:49.261Z,62.82
2018-06-01T07:58:49.249Z,62.82
2018-06-01T07:59:49.242Z,62.27
2018-06-01T08:00:49.228Z,62.56
2018-06-01T08:01:49.216Z,62.13
2018-06-01T08:02:49.205Z,61.16
2018-06-01T08:03:49.193Z,60.24
2018-06-01T08:04:49.390Z,61.66
2018-06-01T08:05:49.173Z,62.66
2018-06-01T08:06:49.363Z,62.40
2018-06-01T08:07:49.153Z,63.48
2018-06-01T08:08:49.141Z,63.44
2018-06-01T08:09:49.132Z,62.76
2018-06-01T08:10:49.134Z,63.21
2018-06-01T08:11:49.112Z,63.05
2018-06-01T08:12:49.100Z,61.48
2018-06-01T08:13:49.088Z,60.05
2018-06-01T08:14:49.153Z,60.41
2018-06-01T08:15:49.065Z,61.19
2018-06-01T08:16:49.056Z,60.14
2018-06-01T08:17:49.046Z,59.66
2018-06-01T08:18:49.035Z,58.97
2018-06-01T08:19:49.025Z,59.69
2018-06-01T08:20:49.015Z,57.98
2018-06-01T08:21:49.006Z,57.03
2018-06-01T08:22:49.002Z,56.24
2018-06-01T08:23:49.187Z,57.95
2018-06-01T08:24:48.975Z,57.92
2018-06-01T08:25:48.966Z,59.79
2018-06-01T08:26:48.956Z,59.14
2018-06-01T08:27:48.946Z,59.99
2018-06-01T08:28:48.937Z,59.79
2018-06-01T08:29:48.934Z,60.25
2018-06-01T08:30:48.917Z,60.28
2018-06-01T08:31:48.909Z,60.55
2018-06-01T08:32:48.899Z,61.25
2018-06-01T08:33:48.891Z,61.52
2018-06-01T08:34:48.886Z,61.72
2018-06-01T08:35:48.872Z,59.43
2018-06-01T08:36:48.866Z,59.72
2018-06-01T08:37:48.854Z,59.99
2018-06-01T08:38:48.844Z,59.89
2018-06-01T08:39:48.835Z,61.43
2018-06-01T08:40:48.826Z,60.11
2018-06-01T08:41:48.819Z,60.05
2018-06-01T08:42:48.807Z,59.07
2018-06-01T08:43:48.798Z,59.46
2018-06-01T08:44:48.868Z,57.56
2018-06-01T08:45:48.780Z,57.36
2018-06-01T08:46:48.778Z,55.82
2018-06-01T08:47:48.769Z,58.12
2018-06-01T08:48:48.760Z,58.28
2018-06-01T08:49:48.756Z,57.26
2018-06-01T08:50:48.742Z,57.07
2018-06-01T08:51:48.729Z,57.95
2018-06-01T08:52:48.717Z,56.81
2018-06-01T08:53:48.709Z,57.17
2018-06-01T08:54:48.700Z,57.10
2018-06-01T08:55:48.691Z,57.73
2018-06-01T08:56:48.688Z,57.82
2018-06-01T08:57:48.679Z,57.46
2018-06-01T08:58:48.668Z,58.48
2018-06-01T08:59:48.664Z,59.36
2018-06-01T09:00:48.649Z,59.49
2018-06-01T09:01:48.642Z,57.59
2018-06-01T09:02:48.633Z,57.78
2018-06-01T09:03:48.627Z,56.34
2018-06-01T09:04:48.617Z,54.93
2018-06-01T09:05:48.608Z,54.87
2018-06-01T09:06:48.606Z,54.28
2018-06-01T09:07:48.592Z,57.21
2018-06-01T09:08:48.584Z,57.92
2018-06-01T09:09:48.578Z,57.82
2018-06-01T09:10:48.569Z,57.17
2018-06-01T09:11:48.561Z,55.87
2018-06-01T09:12:48.557Z,57.99
2018-06-01T09:13:48.545Z,57.10
2018-06-01T09:14:48.536Z,56.38
2018-06-01T09:15:48.532Z,56.97
2018-06-01T09:16:48.557Z,55.29
2018-06-01T09:17:48.515Z,54.53
2018-06-01T09:18:48.510Z,53.53
2018-06-01T09:19:48.501Z,55.00
2018-06-01T09:20:48.493Z,54.97
2018-06-01T09:21:48.485Z,54.68
2018-06-01T09:22:48.477Z,55.10
2018-06-01T09:23:48.469Z,54.17
2018-06-01T09:24:48.462Z,54.33
2018-06-01T09:25:48.457Z,54.70
2018-06-01T09:26:48.448Z,54.24
2018-06-01T09:27:48.440Z,53.53
2018-06-01T09:28:48.434Z,53.04
2018-06-01T09:29:48.429Z,51.35
2018-06-01T09:30:48.420Z,50.73
2018-06-01T09:31:48.416Z,50.49
2018-06-01T09:32:48.406Z,49.90
2018-06-01T09:33:48.400Z,49.58
2018-06-01T09:34:48.393Z,49.48
2018-06-01T09:35:48.385Z,51.47
2018-06-01T09:36:48.379Z,51.42
2018-06-01T09:37:48.372Z,52.72
2018-06-01T09:38:48.370Z,53.63
2018-06-01T09:39:48.363Z,54.38
2018-06-01T09:40:48.355Z,54.46
2018-06-01T09:41:48.354Z,54.02
2018-06-01T09:42:48.341Z,52.67
2018-06-01T09:43:48.341Z,52.28
2018-06-01T09:44:48.328Z,51.32
2018-06-01T09:45:48.322Z,51.42
2018-06-01T09:46:48.315Z,51.45
2018-06-01T09:47:48.309Z,51.25
2018-06-01T09:48:48.305Z,51.47
2018-06-01T09:49:48.299Z,51.47
2018-06-01T09:50:48.289Z,50.42
2018-06-01T09:51:48.283Z,50.44
2018-06-01T09:52:48.278Z,50.34
2018-06-01T09:53:48.271Z,51.05
2018-06-01T09:54:48.269Z,51.07
2018-06-01T09:55:48.258Z,50.51
2018-06-01T09:56:48.256Z,52.89
2018-06-01T09:57:48.249Z,52.45
2018-06-01T09:58:48.241Z,52.42
2018-06-01T09:59:48.233Z,52.72
2018-06-01T10:00:48.228Z,52.62
2018-06-01T10:01:48.223Z,53.02
2018-06-01T10:02:48.333Z,52.48
2018-06-01T10:03:48.225Z,52.28
2018-06-01T10:04:48.210Z,51.52
2018-06-01T10:05:48.198Z,51.05
2018-06-01T10:06:48.191Z,51.69
2018-06-01T10:07:48.188Z,52.01
2018-06-01T10:08:48.179Z,51.15
2018-06-01T10:09:48.177Z,50.44
2018-06-01T10:10:48.167Z,50.71
2018-06-01T10:11:48.162Z,51.50
2018-06-01T10:12:48.160Z,49.58
2018-06-01T10:13:48.150Z,50.14
2018-06-01T10:14:48.144Z,49.97
2018-06-01T10:15:48.140Z,49.58
2018-06-01T10:16:48.137Z,49.11
2018-06-01T10:17:48.128Z,49.16
2018-06-01T10:18:48.121Z,48.71
2018-06-01T10:19:48.122Z,49.48
2018-06-01T10:20:48.112Z,50.46
2018-06-01T10:21:48.105Z,49.92
2018-06-01T10:22:48.100Z,49.87
2018-06-01T10:23:48.112Z,49.70
2018-06-01T10:24:48.096Z,50.88
2018-06-01T10:25:48.092Z,50.44
2018-06-01T10:26:48.079Z,51.52
2018-06-01T10:27:48.075Z,51.34
2018-06-01T10:28:48.066Z,51.20
2018-06-01T10:29:48.061Z,50.21
2018-06-01T10:30:48.056Z,51.57
2018-06-01T10:31:48.050Z,51.45
2018-06-01T10:32:48.045Z,52.67
2018-06-01T10:33:48.040Z,52.80
2018-06-01T10:34:48.049Z,53.53
2018-06-01T10:35:48.039Z,54.44
2018-06-01T10:36:48.034Z,54.33
2018-06-01T10:37:48.017Z,53.21
2018-06-01T10:38:48.015Z,52.77
2018-06-01T10:39:48.005Z,51.52
2018-06-01T10:40:48.000Z,52.40
2018-06-01T10:41:48.013Z,54.33
2018-06-01T10:42:47.990Z,54.17
2018-06-01T10:43:47.982Z,54.29
2018-06-01T10:44:47.976Z,53.21
2018-06-01T10:45:47.969Z,52.45
2018-06-01T10:46:47.964Z,53.21
2018-06-01T10:47:47.963Z,53.04
2018-06-01T10:48:47.953Z,52.65
2018-06-01T10:49:47.947Z,52.45
2018-06-01T10:50:47.940Z,52.76
2018-06-01T10:51:47.935Z,53.06
2018-06-01T10:52:47.931Z,53.65
2018-06-01T10:53:47.924Z,53.58
2018-06-01T10:54:47.919Z,52.99
2018-06-01T10:55:47.911Z,53.67
2018-06-01T10:56:47.908Z,54.50
2018-06-01T10:57:47.902Z,55.49
2018-06-01T10:58:47.893Z,54.19
2018-06-01T10:59:47.888Z,53.14
2018-06-01T11:00:47.882Z,53.14
2018-06-01T11:01:47.876Z,54.73
2018-06-01T11:02:47.870Z,55.10
2018-06-01T11:03:47.863Z,55.88
2018-06-01T11:04:47.859Z,55.80
2018-06-01T11:05:47.852Z,57.10
2018-06-01T11:06:47.845Z,56.87
2018-06-01T11:07:47.840Z,55.98
2018-06-01T11:08:47.834Z,54.66
2018-06-01T11:09:47.829Z,54.56
2018-06-01T11:10:47.824Z,54.60
2018-06-01T11:11:47.816Z,54.21
2018-06-01T11:12:47.813Z,54.70
2018-06-01T11:13:47.867Z,54.25
2018-06-01T11:14:47.816Z,54.09
2018-06-01T11:15:47.794Z,52.57
2018-06-01T11:16:47.787Z,51.69
2018-06-01T11:17:47.780Z,51.57
2018-06-01T11:18:47.781Z,52.40
2018-06-01T11:19:47.765Z,52.76
2018-06-01T11:20:47.761Z,52.42
2018-06-01T11:21:47.753Z,51.30
2018-06-01T11:22:47.746Z,50.16
2018-06-01T11:23:47.740Z,49.06
2018-06-01T11:24:47.734Z,49.43
2018-06-01T11:25:47.734Z,51.34
2018-06-01T11:26:47.724Z,51.45
2018-06-01T11:27:47.717Z,51.59
2018-06-01T11:28:47.710Z,50.21
2018-06-01T11:29:47.704Z,50.42
2018-06-01T11:30:47.701Z,50.29
2018-06-01T11:31:47.692Z,51.91
2018-06-01T11:32:47.686Z,52.47
2018-06-01T11:33:47.698Z,52.57
2018-06-01T11:34:47.674Z,53.03
2018-06-01T11:35:47.668Z,53.06
2018-06-01T11:36:47.668Z,54.31
2018-06-01T11:37:47.657Z,53.72
2018-06-01T11:38:47.651Z,53.72
2018-06-01T11:39:47.646Z,52.55
2018-06-01T11:40:47.640Z,53.40
2018-06-01T11:41:47.633Z,53.96
2018-06-01T11:42:47.630Z,52.89
2018-06-01T11:43:47.620Z,51.47
2018-06-01T11:44:47.616Z,50.90
2018-06-01T11:45:47.613Z,50.81
2018-06-01T11:46:47.605Z,51.27
2018-06-01T11:47:47.600Z,51.86
2018-06-01T11:48:47.593Z,51.72
2018-06-01T11:49:47.586Z,51.27
2018-06-01T11:50:47.579Z,51.30
2018-06-01T11:51:47.574Z,51.27
2018-06-01T11:52:47.569Z,52.40
2018-06-01T11:53:47.564Z,52.40
2018-06-01T11:54:47.557Z,52.96
2018-06-01T11:55:47.553Z,52.28
2018-06-01T11:56:47.545Z,52.42
2018-06-01T11:57:47.547Z,52.47
2018-06-01T11:58:47.533Z,54.52
2018-06-01T11:59:47.526Z,56.95
2018-06-01T12:00:47.521Z,56.16
2018-06-01T12:01:47.517Z,56.12
2018-06-01T12:02:47.511Z,54.50
2018-06-01T12:03:47.508Z,54.21
2018-06-01T12:04:47.497Z,53.58
2018-06-01T12:05:47.491Z,52.76
2018-06-01T12:06:47.485Z,54.33
2018-06-01T12:07:47.478Z,57.28
2018-06-01T12:08:47.475Z,57.79
2018-06-01T12:09:47.466Z,56.21
2018-06-01T12:10:47.516Z,54.77
2018-06-01T12:11:47.452Z,53.82
2018-06-01T12:12:47.445Z,53.43
2018-06-01T12:13:47.439Z,54.16
2018-06-01T12:14:47.437Z,56.85
2018-06-01T12:15:47.424Z,55.73
2018-06-01T12:16:47.426Z,55.99
2018-06-01T12:17:47.480Z,56.68
2018-06-01T12:18:47.405Z,55.95
2018-06-01T12:19:47.394Z,54.44
2018-06-01T12:20:47.387Z,53.28
2018-06-01T12:21:47.381Z,53.36
2018-06-01T12:22:47.371Z,53.85
2018-06-01T12:23:47.382Z,53.36
2018-06-01T12:24:47.357Z,53.45
2018-06-01T12:25:47.349Z,53.53
2018-06-01T12:26:47.345Z,54.21
2018-06-01T12:27:47.333Z,52.69
2018-06-01T12:28:47.326Z,52.40
2018-06-01T12:29:47.318Z,52.74
2018-06-01T12:30:47.321Z,53.89
2018-06-01T12:31:47.302Z,54.16
2018-06-01T12:32:47.293Z,55.70
2018-06-01T12:33:47.283Z,56.36
2018-06-01T12:34:47.276Z,55.51
2018-06-01T12:35:47.268Z,54.55
2018-06-01T12:36:47.272Z,55.07
2018-06-01T12:37:47.256Z,54.41
2018-06-01T12:38:47.244Z,54.97
2018-06-01T12:39:47.236Z,54.97
2018-06-01T12:40:47.279Z,54.77
2018-06-01T12:41:47.220Z,53.85
2018-06-01T12:42:47.211Z,54.02
2018-06-01T12:43:47.204Z,54.70
2018-06-01T12:44:47.195Z,54.70
2018-06-01T12:45:47.187Z,54.85
2018-06-01T12:46:47.178Z,54.50
2018-06-01T12:47:47.169Z,53.33
2018-06-01T12:48:47.162Z,53.53
2018-06-01T12:49:47.154Z,53.40
2018-06-01T12:50:47.146Z,54.55
2018-06-01T12:51:47.139Z,54.28
2018-06-01T12:52:47.130Z,53.72
2018-06-01T12:53:47.123Z,53.53
2018-06-01T12:54:47.120Z,53.82